Portada
METAR-TAF:

METAR-TAF

Aeroports :

Effingham County Memorial Airport

Effingham, Illinois, Estats Units d'Amèrica

latitud: 39-04-14N, longitud: 088-32-00W, altitud: 179 m

Observació

L'informe es va fer fa 18 minuts, a les 14:15 UTC
Vent 6 kt del Oest
Temperatura 4°C
Humitat 81%
Pressió 1012 hPa
Visibilitat: 4.0 km
Cel ennuvolat a una alçada de 900 ft
Cel cobert a una alçada de 1300 ft
calitja

METAR: K1H2 181415Z AUTO 28006KT 2 1/2SM HZ BKN009 OVC013 04/01 A2988 RMK AO2 T00390006

Hora: 08:33 (14:33 UTC)


TAF: manca

Observacions i pronòstics meteorològics de més de 4000 aeroports (METAR i TAF).

Les estacions disponibles són els punts grocs i vermells al mapa.

Posi el ratolí al punt desitjat per veure el nom de l'estació.

Feu clic per veure les observacions i els pronòstics meteorològics.

Per canviar el mapa: feu clic els botons verds amb una creu de color negre per apropar; al botó verd amb un guió per allunyar la imatge; o en les fletxes verdes per a mapes adjacents.


METAR-TAF: